createdAt,value
2023-01-10T02:53:01.115Z,9.763109
2023-01-10T02:54:01.058Z,9.762837
2023-01-10T02:55:01.096Z,9.762729
2023-01-10T02:56:01.091Z,9.762742
2023-01-10T02:57:01.100Z,9.762677
2023-01-10T02:58:01.053Z,9.762677
2023-01-10T02:59:01.064Z,9.762865
2023-01-10T03:00:00.998Z,9.762896
2023-01-10T03:01:01.054Z,9.762751
2023-01-10T03:02:01.114Z,9.762959
2023-01-10T03:03:01.003Z,9.762991
2023-01-10T03:04:01.018Z,9.763656
2023-01-10T03:05:00.995Z,9.763682
2023-01-10T03:06:00.992Z,9.763682
2023-01-10T03:07:00.982Z,9.763682
2023-01-10T03:08:00.956Z,9.763682
2023-01-10T03:09:00.927Z,9.763682
2023-01-10T03:10:00.927Z,9.763682
2023-01-10T03:11:00.947Z,9.763682
2023-01-10T03:12:00.936Z,9.763682
2023-01-10T03:13:00.883Z,9.763682
2023-01-10T03:14:00.895Z,9.763682
2023-01-10T03:15:00.882Z,9.762603
2023-01-10T03:16:01.020Z,9.762898
2023-01-10T03:17:00.888Z,9.762800
2023-01-10T03:18:00.853Z,9.762800
2023-01-10T03:19:00.881Z,9.762800
2023-01-10T03:20:01.035Z,9.763275
2023-01-10T03:21:00.813Z,9.765175
2023-01-10T03:22:00.837Z,9.763139
2023-01-10T03:23:00.843Z,9.762930
2023-01-10T03:24:00.843Z,9.762584
2023-01-10T03:25:00.810Z,9.762708
2023-01-10T03:26:00.747Z,9.762672
2023-01-10T03:27:00.771Z,9.762682
2023-01-10T03:28:00.786Z,9.762800
2023-01-10T03:29:00.757Z,9.762779
2023-01-10T03:30:00.804Z,9.762786
2023-01-10T03:31:00.799Z,9.762687
2023-01-10T03:32:00.737Z,9.762725
2023-01-10T03:33:00.710Z,9.762704
2023-01-10T03:34:00.714Z,9.762578
2023-01-10T03:35:00.657Z,9.762822
2023-01-10T03:36:00.688Z,9.762876
2023-01-10T03:37:00.685Z,9.762876
2023-01-10T03:38:00.654Z,9.762769
2023-01-10T03:39:00.644Z,9.762769
2023-01-10T03:40:00.664Z,9.762846
2023-01-10T03:41:00.711Z,9.762780
2023-01-10T03:42:00.595Z,9.762684
2023-01-10T03:43:00.622Z,9.762498
2023-01-10T03:44:00.609Z,9.762699
2023-01-10T03:45:00.593Z,9.763444
2023-01-10T03:46:00.594Z,9.766713
2023-01-10T03:47:00.583Z,9.772124
2023-01-10T03:48:00.604Z,9.780430
2023-01-10T03:49:00.565Z,9.780430
2023-01-10T03:50:00.551Z,9.780430
2023-01-10T03:51:00.536Z,9.780430
2023-01-10T03:52:00.547Z,9.780430
2023-01-10T03:53:00.520Z,9.780430
2023-01-10T03:54:00.542Z,9.780430
2023-01-10T03:55:00.499Z,9.780430
2023-01-10T03:56:00.494Z,9.780430
2023-01-10T03:57:02.656Z,9.780430
2023-01-10T03:58:01.416Z,9.780430
2023-01-10T03:59:00.456Z,9.780430
2023-01-10T04:00:00.430Z,9.780430
2023-01-10T04:01:00.509Z,9.780430
2023-01-10T04:02:00.571Z,9.780430
2023-01-10T04:03:00.463Z,9.780430
2023-01-10T04:04:00.429Z,9.780430
2023-01-10T04:05:00.405Z,9.780430
2023-01-10T04:06:00.375Z,9.780430
2023-01-10T04:07:00.424Z,9.780430
2023-01-10T04:08:00.359Z,9.780430
2023-01-10T04:09:00.372Z,9.780430
2023-01-10T04:10:00.348Z,9.780430
2023-01-10T04:11:00.309Z,9.780430
2023-01-10T04:12:00.335Z,9.780430
2023-01-10T04:13:00.350Z,9.780430
2023-01-10T04:14:00.311Z,9.780430
2023-01-10T04:15:00.277Z,9.780430
2023-01-10T04:16:00.319Z,9.780430
2023-01-10T04:17:00.300Z,9.780430
2023-01-10T04:18:00.243Z,9.780430
2023-01-10T04:19:00.243Z,9.780430
2023-01-10T04:20:00.247Z,9.780430
2023-01-10T04:21:00.221Z,9.780430
2023-01-10T04:22:00.224Z,9.780430
2023-01-10T04:23:00.226Z,9.780430
2023-01-10T04:24:00.167Z,9.780430
2023-01-10T04:25:00.218Z,9.780430
2023-01-10T04:26:00.178Z,9.780430
2023-01-10T04:27:00.205Z,9.780430
2023-01-10T04:28:00.183Z,9.780430
2023-01-10T04:29:00.209Z,9.780430
2023-01-10T04:30:00.154Z,9.780430
2023-01-10T04:31:00.115Z,9.780430
2023-01-10T04:32:00.119Z,9.780430
2023-01-10T04:33:00.111Z,9.780430
2023-01-10T04:34:00.129Z,9.780430
2023-01-10T04:35:00.081Z,9.780430
2023-01-10T04:36:00.133Z,9.780430
2023-01-10T04:37:00.113Z,9.780430
2023-01-10T04:38:00.059Z,9.780430
2023-01-10T04:39:00.043Z,9.780430
2023-01-10T04:40:00.041Z,9.780430
2023-01-10T04:41:00.006Z,9.780430
2023-01-10T04:42:00.014Z,9.780430
2023-01-10T04:42:59.992Z,9.780430
2023-01-10T04:44:00.005Z,9.780430
2023-01-10T04:44:59.989Z,9.780430
2023-01-10T04:46:00.003Z,9.780430
2023-01-10T04:46:59.981Z,9.780430
2023-01-10T04:48:00.002Z,9.780430
2023-01-10T04:48:59.969Z,9.780430
2023-01-10T04:49:59.957Z,9.780430
2023-01-10T04:50:59.930Z,9.780430
2023-01-10T04:51:59.930Z,9.780430
2023-01-10T04:52:59.923Z,9.780430
2023-01-10T04:53:59.881Z,9.780430
2023-01-10T04:54:59.854Z,9.780430
2023-01-10T04:55:59.871Z,9.780430
2023-01-10T04:56:59.875Z,9.780430
2023-01-10T04:57:59.883Z,9.780430
2023-01-10T04:58:59.902Z,9.780430
2023-01-10T04:59:59.824Z,9.780430
2023-01-10T05:00:59.864Z,9.780430
2023-01-10T05:01:59.880Z,9.780430
2023-01-10T05:02:59.905Z,9.780430
2023-01-10T05:04:00.790Z,9.780430
2023-01-10T05:04:59.786Z,9.780430
2023-01-10T05:05:59.754Z,9.780430
2023-01-10T05:06:59.764Z,9.780430
2023-01-10T05:07:59.800Z,9.780430
2023-01-10T05:08:59.728Z,9.780430
2023-01-10T05:09:59.739Z,9.780430
2023-01-10T05:10:59.730Z,9.780430
2023-01-10T05:11:59.708Z,9.780430
2023-01-10T05:12:59.719Z,9.780430
2023-01-10T05:13:59.750Z,9.780430
2023-01-10T05:14:59.685Z,9.780430
2023-01-10T05:15:59.650Z,9.780430
2023-01-10T05:16:59.691Z,9.780430
2023-01-10T05:17:59.655Z,9.780430
2023-01-10T05:18:59.608Z,9.780430
2023-01-10T05:19:59.633Z,9.780430
2023-01-10T05:20:59.614Z,9.780430
2023-01-10T05:21:59.626Z,9.780430
2023-01-10T05:22:59.629Z,9.780430
2023-01-10T05:23:59.601Z,9.780430
2023-01-10T05:24:59.571Z,9.780430
2023-01-10T05:25:59.527Z,9.780430
2023-01-10T05:26:59.520Z,9.780430
2023-01-10T05:27:59.550Z,9.780430
2023-01-10T05:28:59.630Z,9.780430
2023-01-10T05:29:59.517Z,9.780430
2023-01-10T05:30:59.503Z,9.780430
2023-01-10T05:31:59.523Z,9.780430
2023-01-10T05:32:59.518Z,9.780430
2023-01-10T05:33:59.487Z,9.780430
2023-01-10T05:34:59.462Z,9.780430
2023-01-10T05:35:59.466Z,9.780430
2023-01-10T05:36:59.448Z,9.780430
2023-01-10T05:37:59.507Z,9.780430
2023-01-10T05:38:59.443Z,9.780430
2023-01-10T05:39:59.392Z,9.780430
2023-01-10T05:40:59.386Z,9.780430
2023-01-10T05:41:59.437Z,9.780430
2023-01-10T05:42:59.421Z,9.780430
2023-01-10T05:43:59.386Z,9.780430
2023-01-10T05:44:59.361Z,9.780430
2023-01-10T05:45:59.537Z,9.780430
2023-01-10T05:46:59.433Z,9.780430
2023-01-10T05:47:59.322Z,9.780430
2023-01-10T05:48:59.367Z,9.780430
2023-01-10T05:49:59.363Z,9.780430
2023-01-10T05:50:59.305Z,9.780430
2023-01-10T05:51:59.393Z,9.780430
2023-01-10T05:52:59.350Z,9.780430
2023-01-10T05:53:59.370Z,9.780430
2023-01-10T05:54:59.298Z,9.780430
2023-01-10T05:55:59.357Z,9.780430
2023-01-10T05:56:59.326Z,9.780430
2023-01-10T05:57:59.289Z,9.780430
2023-01-10T05:59:07.778Z,9.780430
2023-01-10T06:00:01.580Z,9.780430
2023-01-10T06:00:59.315Z,9.780430
2023-01-10T06:01:59.241Z,9.780430
2023-01-10T06:02:59.259Z,9.780430
2023-01-10T06:03:59.260Z,9.780430
2023-01-10T06:04:59.237Z,9.780430
2023-01-10T06:05:59.218Z,9.780430
2023-01-10T06:06:59.284Z,9.780430
2023-01-10T06:07:59.150Z,9.780430
2023-01-10T06:08:59.181Z,9.780430
2023-01-10T06:09:59.135Z,9.780430
2023-01-10T06:10:59.180Z,9.780430
2023-01-10T06:11:59.071Z,9.780430
2023-01-10T06:12:59.064Z,9.780430
2023-01-10T06:13:59.030Z,9.780430
2023-01-10T06:14:59.047Z,9.780430
2023-01-10T06:15:59.038Z,9.780430
2023-01-10T06:16:59.023Z,9.780430
2023-01-10T06:17:59.018Z,9.780430
2023-01-10T06:18:58.999Z,9.780430
2023-01-10T06:19:59.992Z,9.780430
2023-01-10T06:20:58.979Z,9.780430
2023-01-10T06:21:59.010Z,9.780430
2023-01-10T06:22:58.987Z,9.780430
2023-01-10T06:23:58.998Z,9.780430
2023-01-10T06:25:00.449Z,9.780430
2023-01-10T06:25:58.920Z,9.780430
2023-01-10T06:26:58.926Z,9.780430
2023-01-10T06:27:58.892Z,9.780430
2023-01-10T06:28:58.970Z,9.780430
2023-01-10T06:29:59.014Z,9.780430
2023-01-10T06:30:58.922Z,9.780430
2023-01-10T06:31:58.849Z,9.780430
2023-01-10T06:32:58.852Z,9.780430
2023-01-10T06:33:58.884Z,9.780430
2023-01-10T06:34:58.806Z,9.780430
2023-01-10T06:35:58.836Z,9.780430
2023-01-10T06:36:58.946Z,9.780430
2023-01-10T06:37:58.804Z,9.780430
2023-01-10T06:38:58.851Z,9.780430
2023-01-10T06:39:58.796Z,9.780430
2023-01-10T06:40:58.762Z,9.780430
2023-01-10T06:41:58.784Z,9.780430
2023-01-10T06:42:58.742Z,9.780430
2023-01-10T06:43:58.763Z,9.780430
2023-01-10T06:44:58.732Z,9.780430
2023-01-10T06:45:59.805Z,9.780430
2023-01-10T06:46:58.746Z,9.780430
2023-01-10T06:47:58.695Z,9.780430
2023-01-10T06:48:58.705Z,9.780430
2023-01-10T06:49:58.685Z,9.780430
2023-01-10T06:50:58.671Z,9.780430
2023-01-10T06:51:58.671Z,9.780430
2023-01-10T06:52:58.714Z,9.780430
2023-01-10T06:53:58.697Z,9.780430
2023-01-10T06:54:58.630Z,9.780430
2023-01-10T06:55:58.660Z,9.780430
2023-01-10T06:56:58.565Z,9.780430
2023-01-10T06:57:58.602Z,9.780430
2023-01-10T06:58:59.610Z,9.780430
2023-01-10T06:59:58.569Z,9.780430
2023-01-10T07:00:58.643Z,9.780430
2023-01-10T07:01:58.688Z,9.780430
2023-01-10T07:02:58.521Z,9.780430
2023-01-10T07:03:58.610Z,9.780430
2023-01-10T07:04:58.539Z,9.780430
2023-01-10T07:05:58.514Z,9.780430
2023-01-10T07:06:58.506Z,9.780430
2023-01-10T07:07:58.504Z,9.780430
2023-01-10T07:08:58.496Z,9.780430
2023-01-10T07:09:58.491Z,9.780430
2023-01-10T07:10:58.473Z,9.780430
2023-01-10T07:11:58.430Z,9.780430
2023-01-10T07:12:58.455Z,9.780430
2023-01-10T07:13:58.423Z,9.780430
2023-01-10T07:14:58.504Z,9.780430
2023-01-10T07:15:58.492Z,9.780430
2023-01-10T07:16:58.391Z,9.780430
2023-01-10T07:17:58.420Z,9.780430
2023-01-10T07:18:58.415Z,9.780430
2023-01-10T07:19:58.363Z,9.780430
2023-01-10T07:20:58.406Z,9.780430
2023-01-10T07:21:58.451Z,9.780430
2023-01-10T07:22:58.393Z,9.780430
2023-01-10T07:23:58.336Z,9.780430
2023-01-10T07:24:58.306Z,9.780430
2023-01-10T07:25:58.386Z,9.780430
2023-01-10T07:26:58.280Z,9.780430
2023-01-10T07:27:58.340Z,9.780430
2023-01-10T07:28:58.326Z,9.780430
2023-01-10T07:29:58.346Z,9.780430
2023-01-10T07:30:58.358Z,9.780430
2023-01-10T07:31:58.282Z,9.780430
2023-01-10T07:32:58.276Z,9.780430
2023-01-10T07:33:58.272Z,9.780430
2023-01-10T07:34:58.255Z,9.780430
2023-01-10T07:35:58.234Z,9.780430
2023-01-10T07:36:58.243Z,9.780430
2023-01-10T07:37:58.207Z,9.780430
2023-01-10T07:38:58.193Z,9.780430
2023-01-10T07:39:58.221Z,9.780430
2023-01-10T07:40:58.211Z,9.780430
2023-01-10T07:41:58.205Z,9.780430
2023-01-10T07:42:58.127Z,9.780430
2023-01-10T07:43:58.092Z,9.780430
2023-01-10T07:44:58.108Z,9.780430
2023-01-10T07:45:58.152Z,9.780430
2023-01-10T07:46:58.121Z,9.780430
2023-01-10T07:47:58.096Z,9.780430
2023-01-10T07:48:58.068Z,9.780430
2023-01-10T07:49:58.084Z,9.780430
2023-01-10T07:50:58.035Z,9.780430
2023-01-10T07:51:58.036Z,9.780430
2023-01-10T07:52:59.019Z,9.780430
2023-01-10T07:53:58.027Z,9.780430
2023-01-10T07:54:57.983Z,9.780430
2023-01-10T07:55:57.983Z,9.780430
2023-01-10T07:56:57.987Z,9.780430
2023-01-10T07:57:57.953Z,9.780430
2023-01-10T07:58:57.956Z,9.780430
2023-01-10T07:59:57.961Z,9.780430
2023-01-10T08:00:57.944Z,9.780430
2023-01-10T08:01:57.947Z,9.780430
2023-01-10T08:02:58.016Z,9.780430
2023-01-10T08:03:57.892Z,9.780430
2023-01-10T08:04:57.937Z,9.780430
2023-01-10T08:05:57.864Z,9.780430
2023-01-10T08:06:57.866Z,9.780430
2023-01-10T08:07:57.838Z,9.780430
2023-01-10T08:08:57.864Z,9.780430
2023-01-10T08:09:57.851Z,9.780430
2023-01-10T08:10:57.820Z,9.780430
2023-01-10T08:11:57.814Z,9.780430
2023-01-10T08:12:59.603Z,9.780430
2023-01-10T08:13:59.799Z,9.780430
2023-01-10T08:14:57.830Z,9.780430
2023-01-10T08:15:57.921Z,9.780430
2023-01-10T08:16:57.766Z,9.780430
2023-01-10T08:17:57.750Z,9.780430
2023-01-10T08:18:57.740Z,9.780430
2023-01-10T08:19:57.738Z,9.780430
2023-01-10T08:20:57.775Z,9.780430
2023-01-10T08:21:57.713Z,9.780430
2023-01-10T08:22:57.696Z,9.780430
2023-01-10T08:23:57.687Z,9.780430
2023-01-10T08:24:57.696Z,9.780430
2023-01-10T08:25:57.710Z,9.780430
2023-01-10T08:26:57.669Z,9.780430
2023-01-10T08:27:57.684Z,9.780430
2023-01-10T08:28:57.689Z,9.780430
2023-01-10T08:29:57.641Z,9.780430
2023-01-10T08:30:57.670Z,9.780430
2023-01-10T08:31:57.628Z,9.780430
2023-01-10T08:32:57.609Z,9.780430
2023-01-10T08:33:57.605Z,9.780430
2023-01-10T08:34:57.575Z,9.780430
2023-01-10T08:35:57.580Z,9.780430
2023-01-10T08:36:57.592Z,9.780430
2023-01-10T08:37:57.567Z,9.780430
2023-01-10T08:38:57.551Z,9.780430
2023-01-10T08:39:57.557Z,9.780430
2023-01-10T08:40:57.535Z,9.780430
2023-01-10T08:41:57.521Z,9.780430
2023-01-10T08:42:57.493Z,9.780430
2023-01-10T08:43:57.488Z,9.780430
2023-01-10T08:44:59.145Z,9.780430
2023-01-10T08:45:57.490Z,9.780430
2023-01-10T08:46:57.473Z,9.780430
2023-01-10T08:47:57.457Z,9.780430
2023-01-10T08:48:57.456Z,9.780430
2023-01-10T08:49:57.387Z,9.780430
2023-01-10T08:50:58.467Z,9.780430
2023-01-10T08:51:57.389Z,9.780430
2023-01-10T08:52:57.392Z,9.780430
2023-01-10T08:53:57.393Z,9.780430
2023-01-10T08:55:26.830Z,9.780430
2023-01-10T17:10:50.713Z,9.762177
2023-01-10T17:11:50.728Z,9.762499
2023-01-10T17:12:50.734Z,9.762057
2023-01-10T17:13:50.710Z,9.762491
2023-01-10T17:14:51.253Z,9.763185
2023-01-10T17:15:51.498Z,9.762760
2023-01-10T17:16:50.718Z,9.762864
2023-01-10T17:17:50.661Z,9.763093
2023-01-10T17:18:50.666Z,9.762979
2023-01-10T17:19:50.657Z,9.762565
2023-01-10T17:20:50.656Z,9.762768
2023-01-10T17:21:50.619Z,9.762710
2023-01-10T17:22:50.640Z,9.762652
2023-01-10T17:23:50.628Z,9.762810
2023-01-10T17:24:50.613Z,9.762669
2023-01-10T17:25:50.585Z,9.762653
2023-01-10T17:26:50.623Z,9.762797
2023-01-10T17:27:50.621Z,9.762617
2023-01-10T17:28:50.565Z,9.762657
2023-01-10T17:29:50.590Z,9.762019
2023-01-10T17:30:50.539Z,9.763367
2023-01-10T17:31:50.627Z,9.763577
2023-01-10T17:32:50.526Z,9.763883
2023-01-10T17:33:50.536Z,9.762491
2023-01-10T17:34:50.495Z,9.763076
2023-01-10T17:35:50.552Z,9.762878
2023-01-10T17:36:50.477Z,9.762982
2023-01-10T17:37:50.440Z,9.762825
2023-01-10T17:38:50.471Z,9.762677
2023-01-10T17:39:50.458Z,9.762628
2023-01-10T17:40:50.440Z,9.762715
2023-01-10T17:41:50.439Z,9.762855
2023-01-10T17:42:50.432Z,9.762808
2023-01-10T17:43:50.427Z,9.762811
2023-01-10T17:44:50.394Z,9.762734
2023-01-10T17:45:50.509Z,9.762903
2023-01-10T17:46:50.400Z,9.763069
2023-01-10T17:47:50.427Z,9.762681
2023-01-10T17:48:50.372Z,9.762570
2023-01-10T17:49:50.384Z,9.762918
2023-01-10T17:50:50.321Z,9.762777
2023-01-10T17:51:50.316Z,9.762621
2023-01-10T17:52:50.326Z,9.761898
2023-01-10T17:53:50.302Z,9.762162
2023-01-10T17:54:50.314Z,9.762162
2023-01-10T17:55:50.295Z,9.762272
2023-01-10T17:56:50.280Z,9.762342
2023-01-10T17:57:50.270Z,9.762646
2023-01-10T17:58:50.278Z,9.762845
2023-01-10T17:59:50.296Z,9.762363
2023-01-10T18:00:52.962Z,9.762474
2023-01-10T18:01:50.361Z,9.762474
2023-01-10T18:02:50.877Z,9.762474
2023-01-10T18:03:50.229Z,9.762474
2023-01-10T18:04:50.247Z,9.762474
2023-01-10T18:05:50.202Z,9.762474
2023-01-10T18:06:50.206Z,9.762474
2023-01-10T18:07:50.209Z,9.762474
2023-01-10T18:08:50.190Z,9.762474
2023-01-10T18:09:50.229Z,9.762474
2023-01-10T18:10:50.195Z,9.762474
2023-01-10T18:11:50.167Z,9.762474
2023-01-10T18:12:50.127Z,9.762474
2023-01-10T18:13:50.104Z,9.762474
2023-01-10T18:14:50.153Z,9.762474
2023-01-10T18:15:50.152Z,9.762474
2023-01-10T18:16:50.218Z,9.762474
2023-01-10T18:17:50.087Z,9.762474
2023-01-10T18:18:50.072Z,9.762474
2023-01-10T18:19:50.197Z,9.762474
2023-01-10T18:20:50.042Z,9.762474
2023-01-10T18:21:50.047Z,9.762474
2023-01-10T18:22:50.052Z,9.762474
2023-01-10T18:23:50.075Z,9.762474
2023-01-10T18:24:50.038Z,9.762848
2023-01-10T18:25:50.002Z,9.762712
2023-01-10T18:26:50.032Z,9.762769
2023-01-10T18:27:49.981Z,9.762789
2023-01-10T18:28:49.991Z,9.762800
2023-01-10T18:29:50.065Z,9.762789
2023-01-10T18:30:50.043Z,9.762870
2023-01-10T18:31:49.933Z,9.762879
2023-01-10T18:32:49.952Z,9.763098
2023-01-10T18:33:49.947Z,9.762836
2023-01-10T18:34:49.943Z,9.762825
2023-01-10T18:35:49.883Z,9.762896
2023-01-10T18:36:50.831Z,9.762897
2023-01-10T18:37:49.899Z,9.762831
2023-01-10T18:38:49.873Z,9.762846
2023-01-10T18:39:50.740Z,9.762837
2023-01-10T18:40:49.872Z,9.762752
2023-01-10T18:41:50.686Z,9.762740
2023-01-10T18:42:49.836Z,9.762819
2023-01-10T18:43:51.334Z,9.762755
2023-01-10T18:44:49.823Z,9.762674
2023-01-10T18:45:50.833Z,9.762675
2023-01-10T18:46:49.796Z,9.762733
2023-01-10T18:47:49.858Z,9.762721
2023-01-10T18:48:49.819Z,9.762756
2023-01-10T18:49:49.783Z,9.762750
2023-01-10T18:50:49.770Z,9.762765
2023-01-10T18:51:51.277Z,9.762802
2023-01-10T18:52:49.793Z,9.762789
2023-01-10T18:53:49.744Z,9.762733
2023-01-10T18:54:49.750Z,9.762460
2023-01-10T18:55:49.785Z,9.762460
2023-01-10T18:56:49.714Z,9.762460
2023-01-10T18:57:50.291Z,9.762460
2023-01-10T18:58:50.621Z,9.762460
2023-01-10T18:59:49.678Z,9.762460
2023-01-10T19:00:49.656Z,9.762460
2023-01-10T19:01:49.707Z,9.762460
2023-01-10T19:02:49.726Z,9.762557
2023-01-10T19:03:49.684Z,9.762557
2023-01-10T19:04:50.290Z,9.762557
2023-01-10T19:05:49.697Z,9.762557
2023-01-10T19:06:50.460Z,9.762557
2023-01-10T19:07:49.957Z,9.762557
2023-01-10T19:08:49.589Z,9.763276
2023-01-10T19:09:50.945Z,9.762878
2023-01-10T19:11:11.819Z,9.762810
2023-01-10T19:11:51.574Z,9.762860
2023-01-10T19:12:49.550Z,9.762750
2023-01-10T19:13:50.192Z,9.762794
2023-01-10T19:14:49.546Z,9.762858
2023-01-10T19:15:50.178Z,9.763136
2023-01-10T19:16:49.559Z,9.763313
2023-01-10T19:17:50.758Z,9.763476
2023-01-10T19:18:49.748Z,9.763021
2023-01-10T19:19:49.491Z,9.763074
2023-01-10T19:20:50.253Z,9.763124
2023-01-10T19:21:49.488Z,9.762807
2023-01-10T19:22:49.691Z,9.762772
2023-01-10T19:23:49.515Z,9.762452
2023-01-10T19:24:50.556Z,9.762780
2023-01-10T19:25:49.476Z,9.762694
2023-01-10T19:26:50.541Z,9.763150
2023-01-10T19:27:49.442Z,9.760237
2023-01-10T19:28:49.430Z,9.764157
2023-01-10T19:29:49.793Z,9.765902
2023-01-10T19:31:02.761Z,9.765376
2023-01-10T19:31:51.366Z,9.763976
2023-01-10T19:32:49.352Z,9.763938
2023-01-10T19:33:49.420Z,9.763317
2023-01-10T19:34:49.348Z,9.763317
2023-01-10T19:35:49.332Z,9.763317
2023-01-10T19:36:49.306Z,9.763317
2023-01-10T19:37:50.769Z,9.763317
2023-01-10T19:38:49.296Z,9.763317
2023-01-10T19:39:49.345Z,9.763317
2023-01-10T19:40:49.328Z,9.729967
2023-01-10T19:41:49.282Z,10.075322
2023-01-10T19:42:49.265Z,10.078026
2023-01-10T19:43:49.259Z,10.078026
2023-01-10T19:44:49.828Z,10.078026
2023-01-10T19:45:49.209Z,10.078026
2023-01-10T19:46:49.232Z,10.078026
2023-01-10T19:47:49.225Z,10.078026
2023-01-10T19:48:49.195Z,10.078026
2023-01-10T19:49:49.170Z,10.078026
2023-01-10T19:50:49.227Z,10.078026
2023-01-10T19:51:49.244Z,10.078026
2023-01-10T19:52:49.164Z,10.078026
2023-01-10T19:53:49.319Z,10.078026
2023-01-10T19:54:49.128Z,10.078026
2023-01-10T19:55:49.130Z,10.078026
2023-01-10T19:56:49.150Z,10.078026
2023-01-10T19:57:49.277Z,10.078026
2023-01-10T19:58:49.113Z,10.078026
2023-01-10T19:59:49.106Z,10.078026
2023-01-10T20:00:49.076Z,10.078026
2023-01-10T20:01:49.121Z,10.078026
2023-01-10T20:02:49.082Z,10.078026
2023-01-10T20:03:49.084Z,10.078026
2023-01-10T20:04:49.027Z,10.078026
2023-01-10T20:05:49.043Z,10.078026
2023-01-10T20:06:49.020Z,10.078026
2023-01-10T20:07:49.017Z,10.078026
2023-01-10T20:08:49.004Z,10.078026
2023-01-10T20:09:48.988Z,10.078026
2023-01-10T20:10:49.809Z,10.078026
2023-01-10T20:11:48.975Z,10.078026
2023-01-10T20:12:48.969Z,10.078026
2023-01-10T20:13:48.970Z,10.078026
2023-01-10T20:14:48.933Z,10.078026
2023-01-10T20:15:48.970Z,9.762804
2023-01-10T20:16:48.928Z,9.762430
2023-01-10T20:17:49.930Z,9.762551
2023-01-10T20:18:48.901Z,9.762555
2023-01-10T20:19:48.873Z,9.762926
2023-01-10T20:20:48.885Z,9.762556
2023-01-10T20:21:48.876Z,9.762560
2023-01-10T20:22:48.838Z,9.762687
2023-01-10T20:23:48.866Z,9.762998
2023-01-10T20:24:48.847Z,9.762810
2023-01-10T20:25:48.870Z,9.762665
2023-01-10T20:26:48.832Z,9.762786
2023-01-10T20:27:48.790Z,9.762624
2023-01-10T20:28:48.802Z,9.762012
2023-01-10T20:29:48.776Z,9.762358
2023-01-10T20:30:49.816Z,9.762539
2023-01-10T20:31:48.767Z,9.762662
2023-01-10T20:32:48.781Z,9.762750
2023-01-10T20:33:48.719Z,9.763155
2023-01-10T20:34:48.739Z,9.762897
2023-01-10T20:35:48.727Z,9.762671
2023-01-10T20:36:48.743Z,9.762791
2023-01-10T20:37:49.355Z,9.762686
2023-01-10T20:38:48.693Z,9.762795
2023-01-10T20:39:48.671Z,9.762920
2023-01-10T20:40:48.683Z,9.762692
2023-01-10T20:41:48.869Z,9.762821
2023-01-10T20:42:48.643Z,9.762834
2023-01-10T20:43:48.631Z,9.762504
2023-01-10T20:44:48.663Z,9.761677
2023-01-10T20:45:48.643Z,9.762874
2023-01-10T20:46:48.742Z,9.762901
2023-01-10T20:47:48.600Z,9.762817
2023-01-10T20:48:48.600Z,9.762567
2023-01-10T20:49:48.585Z,9.762659
2023-01-10T20:50:48.574Z,9.762903
2023-01-10T20:51:48.608Z,9.762800
2023-01-10T20:52:48.569Z,9.763251
2023-01-10T20:53:48.556Z,9.762617
2023-01-10T20:54:48.542Z,9.763837
2023-01-10T20:55:59.133Z,9.763046
2023-01-10T20:56:50.572Z,9.763207
2023-01-10T20:57:48.496Z,9.762984
2023-01-10T20:58:48.519Z,9.762382
2023-01-10T20:59:48.489Z,9.761862
2023-01-10T21:00:48.483Z,9.761862
2023-01-10T21:01:48.529Z,9.761862
2023-01-10T21:02:48.539Z,9.761862
2023-01-10T21:03:48.462Z,9.761862
2023-01-10T21:04:50.469Z,9.761862
2023-01-10T21:05:49.442Z,9.761862
2023-01-10T21:06:48.467Z,9.761862
2023-01-10T21:07:48.445Z,9.761862
2023-01-10T21:08:48.398Z,9.761862
2023-01-10T21:09:48.417Z,9.761862
2023-01-10T21:10:48.391Z,9.761862
2023-01-10T21:12:01.968Z,9.761862
2023-01-10T21:12:50.410Z,9.761862
2023-01-10T21:13:48.358Z,9.761862
2023-01-10T21:14:48.338Z,9.761862
2023-01-10T21:15:48.409Z,9.761862
2023-01-10T21:16:48.337Z,9.761862
2023-01-10T21:17:48.322Z,9.761862
2023-01-10T21:18:48.317Z,9.761862
2023-01-10T21:19:48.308Z,9.761862
2023-01-10T21:20:48.273Z,9.761862
2023-01-10T21:21:48.291Z,9.761862
2023-01-10T21:22:48.300Z,9.761862
2023-01-10T21:23:48.263Z,9.761862
2023-01-10T21:24:48.277Z,9.761862
2023-01-10T21:25:48.255Z,9.761862
2023-01-10T21:26:48.313Z,9.761862
2023-01-10T21:27:48.222Z,9.761862
2023-01-10T21:28:48.280Z,9.761862
2023-01-10T21:29:48.234Z,9.761862
2023-01-10T21:30:48.213Z,9.761862
2023-01-10T21:31:48.244Z,9.761862
2023-01-10T21:32:48.220Z,9.761862
2023-01-10T21:33:48.218Z,9.761862
2023-01-10T21:34:48.158Z,9.761862
2023-01-10T21:35:48.151Z,9.761862
2023-01-10T21:36:48.182Z,9.761862
2023-01-10T21:37:48.155Z,9.761862
2023-01-10T21:38:48.124Z,9.761862
2023-01-10T21:39:48.104Z,9.761862
2023-01-10T21:40:48.113Z,9.761862
2023-01-10T21:41:48.094Z,9.761862
2023-01-10T21:42:48.141Z,9.761862
2023-01-10T21:43:48.093Z,9.761862
2023-01-10T21:44:48.070Z,9.761862
2023-01-10T21:45:48.048Z,9.761862
2023-01-10T21:46:48.067Z,9.761862
2023-01-10T21:47:48.062Z,9.761862
2023-01-10T21:48:48.859Z,9.761862
2023-01-10T21:49:48.049Z,9.761862
2023-01-10T21:50:48.009Z,9.761862
2023-01-10T21:51:48.014Z,9.761862
2023-01-10T21:52:47.991Z,9.761862
2023-01-10T21:53:47.966Z,9.761862
2023-01-10T21:54:47.949Z,9.761862
2023-01-10T21:55:47.931Z,9.761862
2023-01-10T21:56:47.955Z,9.761862
2023-01-10T21:57:47.968Z,9.761862
2023-01-10T21:58:47.972Z,9.761862
2023-01-10T21:59:47.908Z,9.761862
2023-01-10T22:00:47.953Z,9.761862
2023-01-10T22:01:47.923Z,9.761862
2023-01-10T22:02:47.936Z,9.761862
2023-01-10T22:03:47.924Z,9.761862
2023-01-10T22:04:47.856Z,9.761862
2023-01-10T22:05:48.875Z,9.761862
2023-01-10T22:06:47.908Z,9.761862
2023-01-10T22:07:47.846Z,9.761862
2023-01-10T22:08:47.860Z,9.761862
2023-01-10T22:09:47.843Z,9.761862
2023-01-10T22:10:47.807Z,9.761862
2023-01-10T22:11:47.770Z,9.761862
2023-01-10T22:12:47.811Z,9.761862
2023-01-10T22:13:47.801Z,9.761862
2023-01-10T22:14:47.753Z,9.761862
2023-01-10T22:15:47.744Z,9.761862
2023-01-10T22:16:47.735Z,9.761862
2023-01-10T22:17:48.713Z,9.761862
2023-01-10T22:18:47.767Z,9.761862
2023-01-10T22:19:47.724Z,9.761862
2023-01-10T22:20:47.728Z,9.761862
2023-01-10T22:21:47.726Z,9.761862
2023-01-10T22:22:47.692Z,9.761862
2023-01-10T22:23:47.732Z,9.761862
2023-01-10T22:24:47.646Z,9.761862
2023-01-10T22:25:47.629Z,9.761862
2023-01-10T22:26:47.666Z,9.761862
2023-01-10T22:27:47.611Z,9.761862
2023-01-10T22:28:47.642Z,9.761862
2023-01-10T22:29:47.641Z,9.761862
2023-01-10T22:30:47.609Z,9.761862
2023-01-10T22:31:47.635Z,9.761862
2023-01-10T22:32:47.578Z,9.761862
2023-01-10T22:33:47.581Z,9.761862
2023-01-10T22:34:47.533Z,9.761862
2023-01-10T22:35:47.550Z,9.761862
2023-01-10T22:36:47.550Z,9.761862
2023-01-10T22:37:47.522Z,9.761862
2023-01-10T22:38:47.535Z,9.761862
2023-01-10T22:39:48.611Z,9.761862
2023-01-10T22:40:48.507Z,9.761862
2023-01-10T22:41:47.480Z,9.761862
2023-01-10T22:42:47.475Z,9.761862
2023-01-10T22:43:47.505Z,9.761862
2023-01-10T22:44:47.461Z,9.761862
2023-01-10T22:45:47.501Z,9.761862
2023-01-10T22:46:47.443Z,9.761862
2023-01-10T22:47:47.464Z,9.761862
2023-01-10T22:48:47.464Z,9.761862
2023-01-10T22:49:47.401Z,9.761862
2023-01-10T22:50:47.394Z,9.761862